Time;durP1;ratioP1;P1;durP2;ratioP2;P2;SDS_P1;SDS_P2;PMS_P1;PMS_P2;Temp;Humidity;BMP_temperature;BMP_pressure;BME280_temperature;BME280_humidity;BME280_pressure;Samples;Min_cycle;Max_cycle;Signal;HPM_P1;HPM_P2
2022/06/22 00:00:32;;;;;;;8.03;6.80;;;19.50;78.10;;;;;;4131598;28;20240;-76
2022/06/22 00:02:39;;;;;;;7.10;6.40;;;19.40;78.60;;;;;;4131765;28;20170;-77
2022/06/22 00:05:03;;;;;;;7.30;5.80;;;19.30;79.20;;;;;;4131816;28;20155;-78
2022/06/22 00:07:13;;;;;;;6.40;5.80;;;19.10;80.80;;;;;;4130230;28;20222;-77
2022/06/22 00:09:39;;;;;;;7.97;5.80;;;18.90;81.60;;;;;;4130024;28;20167;-77
2022/06/22 00:11:44;;;;;;;7.10;5.93;;;18.90;82.00;;;;;;4130100;28;20571;-77
2022/06/22 00:13:50;;;;;;;7.53;5.80;;;19.00;81.90;;;;;;4131173;28;20182;-76
2022/06/22 00:16:04;;;;;;;6.77;5.83;;;19.00;81.90;;;;;;4129838;28;20186;-78
2022/06/22 00:18:31;;;;;;;6.17;5.53;;;19.00;82.10;;;;;;4130261;28;20201;-78
2022/06/22 00:20:34;;;;;;;7.10;6.40;;;18.90;82.90;;;;;;4130857;28;20193;-77
2022/06/22 00:23:14;;;;;;;7.40;6.70;;;19.00;82.80;;;;;;4130792;28;20236;-78
2022/06/22 00:25:33;;;;;;;6.60;6.00;;;19.10;81.40;;;;;;4129689;28;20182;-77
2022/06/22 00:27:37;;;;;;;7.77;6.10;;;18.90;81.90;;;;;;4130234;28;20198;-77
2022/06/22 00:29:39;;;;;;;7.00;6.30;;;18.90;82.70;;;;;;4129549;28;20561;-77
2022/06/22 00:31:51;;;;;;;8.33;6.10;;;18.90;82.60;;;;;;4129504;28;20266;-77
2022/06/22 00:34:02;;;;;;;10.73;6.77;;;19.00;83.00;;;;;;4130853;28;20562;-77
2022/06/22 00:36:18;;;;;;;7.60;6.90;;;19.00;83.10;;;;;;4129364;28;20178;-77
2022/06/22 00:38:29;;;;;;;6.90;6.20;;;19.00;82.50;;;;;;4130021;28;20206;-77
2022/06/22 00:40:31;;;;;;;6.67;5.97;;;19.10;82.30;;;;;;4130671;28;20193;-78
2022/06/22 00:42:41;;;;;;;7.37;5.80;;;19.00;82.60;;;;;;4130590;28;20174;-77
2022/06/22 00:44:57;;;;;;;6.97;6.37;;;19.10;82.30;;;;;;4130714;28;20180;-77
2022/06/22 00:47:07;;;;;;;7.50;5.80;;;19.00;82.80;;;;;;4130630;28;20245;-77
2022/06/22 00:49:16;;;;;;;6.70;6.10;;;19.00;83.10;;;;;;4130018;28;20924;-76
2022/06/22 00:51:22;;;;;;;6.80;6.00;;;18.90;83.70;;;;;;4130657;28;20166;-76
2022/06/22 00:53:33;;;;;;;7.00;6.00;;;18.90;84.00;;;;;;4129083;28;20186;-76
2022/06/22 00:55:57;;;;;;;7.80;5.87;;;19.10;82.30;;;;;;4128805;28;20253;-76
2022/06/22 00:58:07;;;;;;;7.87;6.23;;;18.90;82.50;;;;;;4130227;28;20217;-76
2022/06/22 01:00:19;;;;;;;7.50;6.90;;;18.90;83.00;;;;;;4132914;28;20198;-76
2022/06/22 01:02:37;;;;;;;7.10;6.40;;;18.80;83.60;;;;;;4130523;28;20253;-76
2022/06/22 01:05:07;;;;;;;7.10;6.40;;;18.70;84.80;;;;;;4129203;28;20569;-76
2022/06/22 01:07:25;;;;;;;10.37;7.93;;;18.70;84.60;;;;;;4122945;28;20194;-76
2022/06/22 01:09:41;;;;;;;9.53;6.17;;;18.70;85.10;;;;;;4143146;28;20217;-76
2022/06/22 01:14:31;;;;;;;6.93;6.30;;;18.80;84.80;;;;;;4114481;28;20274;-75
2022/06/22 01:16:37;;;;;;;9.43;6.40;;;18.80;84.80;;;;;;4128419;28;20635;-76
2022/06/22 01:18:46;;;;;;;7.10;6.30;;;18.80;84.80;;;;;;4113655;28;20214;-76
2022/06/22 01:21:03;;;;;;;8.03;7.10;;;18.70;85.40;;;;;;4114266;28;20171;-76
2022/06/22 01:23:24;;;;;;;8.03;5.87;;;18.70;84.70;;;;;;4114249;28;20174;-76
2022/06/22 01:25:36;;;;;;;8.33;6.37;;;18.70;85.30;;;;;;4114050;28;20167;-76
2022/06/22 01:27:41;;;;;;;7.00;6.13;;;18.70;85.70;;;;;;4128117;28;20726;-76
2022/06/22 01:29:49;;;;;;;6.90;6.30;;;18.60;86.00;;;;;;4128776;28;20187;-75
2022/06/22 01:32:14;;;;;;;7.07;6.37;;;18.60;86.20;;;;;;4114021;28;20206;-75
2022/06/22 01:34:16;;;;;;;8.43;7.43;;;18.70;85.80;;;;;;4105320;28;20665;-75
2022/06/22 01:36:32;;;;;;;7.97;7.10;;;18.60;86.10;;;;;;4113726;28;20186;-76
2022/06/22 01:38:37;;;;;;;8.07;7.13;;;18.70;84.90;;;;;;4127860;28;20653;-75
2022/06/22 01:40:56;;;;;;;7.83;6.80;;;18.60;85.90;;;;;;4120251;28;20186;-76
2022/06/22 01:43:05;;;;;;;10.00;6.47;;;18.40;87.20;;;;;;4128764;28;20837;-76
2022/06/22 01:45:17;;;;;;;9.03;8.13;;;18.30;88.50;;;;;;4135089;28;20166;-75
2022/06/22 01:47:35;;;;;;;7.57;6.57;;;18.30;89.30;;;;;;4133877;28;20178;-75
2022/06/22 01:49:58;;;;;;;9.20;7.50;;;18.40;88.30;;;;;;4135412;28;20188;-75
2022/06/22 01:52:05;;;;;;;7.57;6.80;;;18.40;88.20;;;;;;4133923;28;20170;-75
2022/06/22 01:54:27;;;;;;;8.53;7.63;;;18.40;88.30;;;;;;4135322;28;20178;-75
2022/06/22 01:56:39;;;;;;;8.43;7.53;;;18.40;88.90;;;;;;4135273;28;20174;-75
2022/06/22 01:59:12;;;;;;;7.43;6.73;;;18.40;88.80;;;;;;4134436;28;20256;-75
2022/06/22 02:01:23;;;;;;;7.90;7.00;;;18.40;88.80;;;;;;4121676;28;20276;-76
2022/06/22 02:03:26;;;;;;;8.57;7.13;;;18.40;89.10;;;;;;4134204;28;20844;-75
2022/06/22 02:06:02;;;;;;;8.70;7.20;;;18.30;89.30;;;;;;4136036;28;20178;-75
2022/06/22 02:08:11;;;;;;;8.33;6.60;;;18.30;89.90;;;;;;4085741;29;20311;-75
2022/06/22 02:10:45;;;;;;;7.33;6.63;;;18.30;90.10;;;;;;4116954;28;20292;-75
2022/06/22 02:12:54;;;;;;;7.00;6.30;;;18.30;90.00;;;;;;4138090;28;20185;-75
2022/06/22 02:15:05;;;;;;;7.40;6.70;;;18.40;89.80;;;;;;4138727;28;20173;-75
2022/06/22 02:17:08;;;;;;;8.03;6.33;;;18.40;90.10;;;;;;4140276;28;20265;-75
2022/06/22 02:19:11;;;;;;;8.03;7.27;;;18.40;89.90;;;;;;4138255;28;20269;-75
2022/06/22 02:21:35;;;;;;;7.50;6.80;;;18.50;89.70;;;;;;4140890;28;20214;-75
2022/06/22 02:23:37;;;;;;;11.00;7.60;;;18.40;89.60;;;;;;4142307;28;20190;-75
2022/06/22 02:25:45;;;;;;;7.53;6.73;;;18.40;89.70;;;;;;4143582;28;20248;-75
2022/06/22 02:27:46;;;;;;;7.57;6.80;;;18.40;88.70;;;;;;4141419;28;20292;-75
2022/06/22 02:29:53;;;;;;;11.20;8.20;;;18.30;89.60;;;;;;4143710;28;20190;-75
2022/06/22 02:31:59;;;;;;;7.37;6.77;;;18.30;90.10;;;;;;4145510;28;20253;-74
2022/06/22 02:34:00;;;;;;;6.80;6.10;;;18.30;89.50;;;;;;4142953;28;20213;-75
2022/06/22 02:36:02;;;;;;;7.37;6.27;;;18.30;90.10;;;;;;4144302;28;20190;-75
2022/06/22 02:38:05;;;;;;;7.87;6.63;;;18.20;90.20;;;;;;4144854;28;20218;-75
2022/06/22 02:40:10;;;;;;;7.90;7.20;;;18.20;90.20;;;;;;4143665;28;20192;-75
2022/06/22 02:44:34;;;;;;;7.57;6.87;;;18.10;90.20;;;;;;4143687;28;20229;-75
2022/06/22 02:46:38;;;;;;;7.67;6.97;;;18.20;90.30;;;;;;4143299;28;20310;-74
2022/06/22 02:48:41;;;;;;;10.97;8.87;;;18.20;90.30;;;;;;4141454;28;20219;-75
2022/06/22 02:51:27;;;;;;;8.47;7.67;;;18.20;90.50;;;;;;4142623;28;20193;-75
2022/06/22 02:53:34;;;;;;;9.33;6.90;;;18.20;90.20;;;;;;4138146;28;20251;-74
2022/06/22 02:55:36;;;;;;;8.93;7.40;;;18.20;90.50;;;;;;4152724;28;20327;-75
2022/06/22 02:57:56;;;;;;;7.73;7.03;;;18.20;90.50;;;;;;4156016;28;20271;-75
2022/06/22 02:59:58;;;;;;;6.93;6.23;;;18.20;90.30;;;;;;4142109;28;20209;-75
2022/06/22 03:01:59;;;;;;;8.57;6.90;;;18.20;90.60;;;;;;4140844;28;20189;-74
2022/06/22 03:04:06;;;;;;;10.60;9.33;;;18.10;90.80;;;;;;4140455;28;20186;-75
2022/06/22 03:06:10;;;;;;;8.47;7.47;;;18.10;90.90;;;;;;4140877;28;20233;-74
2022/06/22 03:08:12;;;;;;;9.10;8.23;;;18.10;90.90;;;;;;4139211;28;20221;-75
2022/06/22 03:10:22;;;;;;;7.60;6.93;;;18.20;91.00;;;;;;4139919;28;20175;-75
2022/06/22 03:12:22;;;;;;;8.67;7.10;;;18.20;90.90;;;;;;4140085;28;20170;-74
2022/06/22 03:14:35;;;;;;;9.37;6.70;;;18.10;91.10;;;;;;4139772;28;20182;-75
2022/06/22 03:16:39;;;;;;;7.67;6.93;;;18.20;91.00;;;;;;4137832;28;20282;-74
2022/06/22 03:18:42;;;;;;;7.10;6.47;;;18.20;91.10;;;;;;4137882;28;20555;-75
2022/06/22 03:20:51;;;;;;;8.90;8.10;;;18.30;90.80;;;;;;4139993;28;20208;-75
2022/06/22 03:22:56;;;;;;;7.93;6.43;;;18.30;90.90;;;;;;4142405;28;20170;-74
2022/06/22 03:25:16;;;;;;;7.07;6.37;;;18.30;90.50;;;;;;4142876;28;20166;-75
2022/06/22 03:27:23;;;;;;;7.60;6.80;;;18.30;90.80;;;;;;4143009;28;20174;-74
2022/06/22 03:29:59;;;;;;;8.93;8.03;;;18.30;90.80;;;;;;4140933;28;20178;-74
2022/06/22 03:32:24;;;;;;;11.13;6.70;;;18.40;90.90;;;;;;4143318;28;20178;-75
2022/06/22 03:34:33;;;;;;;6.90;6.20;;;18.40;90.60;;;;;;4143295;28;20179;-75
2022/06/22 03:37:06;;;;;;;8.07;6.40;;;18.40;90.70;;;;;;4143728;28;20212;-75
2022/06/22 03:39:14;;;;;;;7.97;6.80;;;18.50;90.30;;;;;;4143860;28;20217;-74
2022/06/22 03:41:23;;;;;;;7.83;6.80;;;18.50;90.40;;;;;;4145382;28;20193;-74
2022/06/22 03:43:26;;;;;;;6.33;5.80;;;18.60;89.30;;;;;;4144071;28;20178;-74
2022/06/22 03:45:34;;;;;;;7.57;6.87;;;18.50;89.70;;;;;;4144060;28;20174;-74
2022/06/22 03:47:42;;;;;;;7.97;6.73;;;18.30;90.00;;;;;;4143142;28;20194;-74
2022/06/22 03:50:15;;;;;;;7.63;6.87;;;18.30;90.00;;;;;;4144743;28;20205;-74
2022/06/22 03:52:22;;;;;;;7.37;6.37;;;18.40;89.60;;;;;;4079444;29;20203;-73
2022/06/22 03:54:31;;;;;;;8.67;6.60;;;18.40;90.00;;;;;;4144140;28;20163;-75
2022/06/22 03:56:35;;;;;;;9.33;6.90;;;18.40;90.00;;;;;;4144562;28;20166;-74
2022/06/22 03:58:37;;;;;;;9.13;8.17;;;18.40;90.10;;;;;;4142455;28;20226;-74
2022/06/22 04:00:40;;;;;;;8.73;6.97;;;18.40;90.00;;;;;;4141961;28;20178;-74
2022/06/22 04:02:41;;;;;;;7.97;6.83;;;18.40;90.10;;;;;;4141793;28;20607;-74
2022/06/22 04:04:42;;;;;;;7.43;6.73;;;18.50;90.30;;;;;;4142738;28;20188;-74
2022/06/22 04:06:49;;;;;;;8.83;6.93;;;18.50;90.30;;;;;;4141661;28;20214;-73
2022/06/22 04:08:50;;;;;;;8.50;7.60;;;18.70;88.70;;;;;;4139416;28;20620;-74
2022/06/22 04:11:06;;;;;;;8.20;6.60;;;18.60;89.30;;;;;;4141946;28;20190;-73
2022/06/22 04:13:20;;;;;;;7.67;6.87;;;18.60;89.30;;;;;;4140400;28;20186;-73
2022/06/22 04:15:27;;;;;;;8.67;7.67;;;18.60;90.00;;;;;;4140565;28;20189;-74
2022/06/22 04:17:39;;;;;;;9.70;7.57;;;18.90;88.40;;;;;;4134786;28;20189;-74
2022/06/22 04:19:45;;;;;;;9.57;8.67;;;18.70;87.80;;;;;;4131540;28;20228;-74
2022/06/22 04:21:50;;;;;;;9.47;7.70;;;18.70;89.30;;;;;;4131207;28;20249;-74
2022/06/22 04:23:55;;;;;;;8.33;7.50;;;18.70;89.10;;;;;;4129993;28;20277;-73
2022/06/22 04:26:18;;;;;;;8.83;8.03;;;18.70;89.30;;;;;;4131497;28;20322;-74
2022/06/22 04:28:20;;;;;;;18.00;16.20;;;18.60;89.50;;;;;;4130632;28;20622;-75
2022/06/22 04:30:26;;;;;;;61.57;57.60;;;18.50;90.20;;;;;;4129704;28;20194;-75
2022/06/22 04:33:05;;;;;;;16.63;12.03;;;18.50;89.90;;;;;;4130979;28;20177;-74
2022/06/22 04:35:25;;;;;;;11.60;10.43;;;18.60;91.00;;;;;;4128623;28;20252;-74
2022/06/22 04:37:35;;;;;;;20.53;18.60;;;18.60;91.70;;;;;;4129017;28;20187;-74
2022/06/22 04:39:42;;;;;;;16.17;14.87;;;18.50;92.60;;;;;;4131058;28;20214;-74
2022/06/22 04:41:43;;;;;;;26.70;24.37;;;18.40;92.40;;;;;;4130868;28;20253;-75
2022/06/22 04:43:44;;;;;;;80.20;74.50;;;18.40;93.70;;;;;;4130680;28;20202;-75
2022/06/22 04:45:46;;;;;;;12.17;9.30;;;18.30;93.30;;;;;;4129357;28;20225;-75
2022/06/22 04:47:47;;;;;;;57.40;53.60;;;18.20;93.70;;;;;;4129970;28;20198;-76
2022/06/22 04:50:10;;;;;;;10.27;9.27;;;18.00;94.30;;;;;;4129446;28;20179;-76
2022/06/22 04:52:11;;;;;;;24.77;22.87;;;17.70;95.90;;;;;;4130728;28;20306;-75
2022/06/22 04:54:33;;;;;;;11.03;10.00;;;17.60;95.50;;;;;;4130919;28;20757;-75
2022/06/22 04:56:42;;;;;;;10.77;7.80;;;17.50;95.80;;;;;;4114562;28;20170;-75
2022/06/22 04:58:51;;;;;;;10.37;6.40;;;17.50;96.20;;;;;;4113586;28;20293;-74
2022/06/22 05:00:53;;;;;;;15.80;14.17;;;17.50;96.40;;;;;;4114426;28;20194;-74
2022/06/22 05:03:00;;;;;;;10.93;7.70;;;17.50;96.60;;;;;;4129117;28;20280;-75
2022/06/22 05:05:22;;;;;;;11.27;6.87;;;17.50;97.80;;;;;;4114367;28;20277;-74
2022/06/22 05:07:43;;;;;;;10.07;8.53;;;17.50;98.20;;;;;;4112553;28;20190;-73
2022/06/22 05:09:50;;;;;;;9.77;4.70;;;17.60;97.30;;;;;;4114421;28;20170;-75
2022/06/22 05:11:51;;;;;;;13.93;6.37;;;17.60;97.20;;;;;;4117013;28;20246;-75
2022/06/22 05:13:54;;;;;;;9.27;5.63;;;17.70;97.50;;;;;;4129227;28;20216;-75
2022/06/22 05:15:57;;;;;;;10.37;8.47;;;17.70;97.90;;;;;;4130138;28;20182;-74
2022/06/22 05:18:01;;;;;;;9.70;7.23;;;17.60;97.90;;;;;;4129374;28;20198;-74
2022/06/22 05:20:22;;;;;;;16.10;8.30;;;17.60;99.50;;;;;;4129787;28;20273;-75
2022/06/22 05:22:23;;;;;;;11.63;7.13;;;17.50;99.90;;;;;;4116182;28;20202;-75
2022/06/22 05:24:32;;;;;;;11.63;7.37;;;17.50;99.90;;;;;;4130148;28;20663;-75
2022/06/22 05:26:34;;;;;;;8.53;6.70;;;17.60;99.90;;;;;;4130116;28;20244;-74
2022/06/22 05:29:07;;;;;;;10.37;9.43;;;17.70;99.90;;;;;;4128064;28;20205;-74
2022/06/22 05:31:27;;;;;;;13.33;6.53;;;17.80;99.80;;;;;;4127794;28;20198;-75
2022/06/22 05:33:29;;;;;;;10.07;7.50;;;17.80;99.80;;;;;;4130093;28;20317;-75
2022/06/22 05:35:34;;;;;;;14.00;7.00;;;17.70;99.90;;;;;;4130133;28;20178;-75
2022/06/22 05:37:40;;;;;;;12.10;6.90;;;17.80;99.90;;;;;;4129350;28;20289;-75
2022/06/22 05:39:42;;;;;;;10.53;7.00;;;17.70;99.90;;;;;;4129992;28;20281;-74
2022/06/22 05:41:46;;;;;;;10.60;7.60;;;17.70;99.90;;;;;;4130019;28;20190;-75
2022/06/22 05:43:47;;;;;;;12.10;6.50;;;17.60;99.90;;;;;;4129902;28;20190;-74
2022/06/22 05:45:54;;;;;;;10.53;6.10;;;17.60;99.90;;;;;;4130041;28;20532;-73
2022/06/22 05:47:56;;;;;;;11.93;7.83;;;17.70;99.90;;;;;;4129339;28;20331;-74
2022/06/22 05:50:09;;;;;;;12.63;7.27;;;17.70;99.90;;;;;;4130054;28;20198;-74
2022/06/22 05:52:17;;;;;;;7.67;4.63;;;17.70;99.90;;;;;;4130075;28;20174;-74
2022/06/22 05:54:51;;;;;;;9.97;5.03;;;17.70;99.90;;;;;;4130107;28;20632;-74
2022/06/22 05:57:15;;;;;;;11.27;6.33;;;17.60;99.90;;;;;;4130070;28;20166;-73
2022/06/22 05:59:32;;;;;;;13.20;5.67;;;17.70;99.90;;;;;;4128604;28;20233;-74
2022/06/22 06:01:55;;;;;;;8.93;6.40;;;17.80;99.90;;;;;;4129958;28;20717;-74
2022/06/22 06:04:10;;;;;;;9.70;6.17;;;17.80;99.90;;;;;;4129823;28;20273;-74
2022/06/22 06:06:17;;;;;;;9.17;5.90;;;17.80;99.90;;;;;;4128574;28;20645;-74
2022/06/22 06:08:31;;;;;;;13.30;8.90;;;17.80;99.90;;;;;;4129138;28;20691;-75
2022/06/22 06:10:36;;;;;;;17.53;9.43;;;17.80;99.90;;;;;;4129959;28;20523;-74
2022/06/22 06:12:43;;;;;;;15.67;8.13;;;17.90;99.90;;;;;;4129938;28;20548;-73
2022/06/22 06:14:51;;;;;;;15.10;7.40;;;18.00;99.90;;;;;;4129822;28;20190;-73
2022/06/22 06:16:56;;;;;;;11.67;8.30;;;18.00;99.90;;;;;;4129943;28;20257;-74
2022/06/22 06:19:00;;;;;;;11.20;6.83;;;17.90;99.90;;;;;;4129054;28;20242;-74
2022/06/22 06:21:15;;;;;;;12.47;9.13;;;17.90;99.90;;;;;;4129912;28;20201;-74
2022/06/22 06:23:19;;;;;;;8.97;7.30;;;17.90;99.90;;;;;;4129817;28;20254;-74
2022/06/22 06:28:02;;;;;;;14.03;9.37;;;17.90;99.90;;;;;;4129156;28;20250;-73
2022/06/22 06:30:15;;;;;;;13.30;7.07;;;17.90;99.90;;;;;;4130493;28;20183;-73
2022/06/22 06:32:22;;;;;;;10.83;6.80;;;17.90;99.90;;;;;;4132890;28;20213;-74
2022/06/22 06:34:30;;;;;;;7.23;6.30;;;17.80;99.90;;;;;;4132860;28;20875;-73
2022/06/22 06:36:43;;;;;;;8.50;6.97;;;17.90;99.90;;;;;;4132796;28;20182;-73
2022/06/22 06:39:00;;;;;;;8.77;7.60;;;17.90;99.90;;;;;;4132189;28;20206;-74
2022/06/22 06:41:25;;;;;;;8.00;5.23;;;18.00;99.90;;;;;;4132767;28;20182;-73
2022/06/22 06:43:42;;;;;;;7.80;5.07;;;18.10;99.90;;;;;;4132828;28;20172;-73
2022/06/22 06:45:42;;;;;;;8.30;6.63;;;18.30;99.90;;;;;;4132734;28;20186;-73
2022/06/22 06:47:50;;;;;;;8.17;6.23;;;18.30;99.90;;;;;;4131746;28;20250;-72
2022/06/22 06:49:59;;;;;;;7.50;5.47;;;18.50;99.90;;;;;;4132457;28;20684;-73
2022/06/22 06:52:41;;;;;;;9.17;6.67;;;18.70;99.90;;;;;;4132589;28;20185;-73
2022/06/22 06:55:15;;;;;;;9.37;6.57;;;18.80;99.90;;;;;;4132518;28;20190;-73
2022/06/22 06:57:18;;;;;;;7.63;5.10;;;19.00;99.90;;;;;;4132458;28;20167;-73
2022/06/22 06:59:24;;;;;;;6.07;4.53;;;19.10;99.90;;;;;;4130438;28;20244;-73
2022/06/22 07:01:27;;;;;;;9.47;4.53;;;19.30;98.50;;;;;;4132244;28;20555;-73
2022/06/22 07:03:34;;;;;;;8.00;4.27;;;19.30;96.60;;;;;;4132410;28;20257;-73
2022/06/22 07:05:35;;;;;;;7.63;4.70;;;19.40;96.90;;;;;;4130976;28;20561;-74
2022/06/22 07:07:58;;;;;;;8.33;4.80;;;19.60;98.00;;;;;;4131584;28;20208;-74
2022/06/22 07:10:28;;;;;;;8.87;5.07;;;19.80;94.70;;;;;;4132265;28;20225;-74
2022/06/22 07:12:45;;;;;;;7.87;5.17;;;20.00;94.90;;;;;;4130856;28;20202;-74
2022/06/22 07:14:45;;;;;;;9.23;5.73;;;20.30;97.40;;;;;;4132043;28;20558;-73
2022/06/22 07:16:50;;;;;;;9.30;6.03;;;20.40;96.30;;;;;;4130723;28;20187;-73
2022/06/22 07:19:01;;;;;;;10.30;7.97;;;20.40;96.80;;;;;;4146142;28;20490;-73
2022/06/22 07:21:16;;;;;;;9.97;8.20;;;20.50;93.50;;;;;;4132128;28;20177;-73
2022/06/22 07:23:26;;;;;;;9.50;4.77;;;20.70;91.10;;;;;;4130873;28;20178;-74
2022/06/22 07:25:33;;;;;;;6.73;4.40;;;20.50;91.90;;;;;;4132248;28;20640;-74
2022/06/22 07:27:36;;;;;;;7.80;3.33;;;20.30;93.40;;;;;;4131423;28;20202;-72
2022/06/22 07:30:38;;;;;;;11.27;6.47;;;20.10;94.20;;;;;;4130519;28;20190;-72
2022/06/22 07:32:51;;;;;;;10.13;9.07;;;20.30;90.60;;;;;;4112828;28;20720;-70
2022/06/22 07:35:00;;;;;;;7.03;3.50;;;20.40;86.30;;;;;;4132543;28;20167;-75
2022/06/22 07:37:09;;;;;;;12.23;5.67;;;20.30;90.30;;;;;;4132956;28;20185;-76
2022/06/22 07:39:12;;;;;;;7.90;5.40;;;20.40;90.90;;;;;;4137690;28;20293;-76
2022/06/22 07:41:20;;;;;;;11.27;5.13;;;20.40;90.40;;;;;;4137870;28;20182;-76
2022/06/22 07:43:20;;;;;;;7.03;3.93;;;20.40;91.80;;;;;;4137404;28;20206;-76
2022/06/22 07:45:23;;;;;;;8.83;5.03;;;20.50;89.20;;;;;;4137870;28;20209;-76
2022/06/22 07:47:41;;;;;;;8.97;3.97;;;20.50;91.30;;;;;;4137249;28;20242;-76
2022/06/22 07:49:59;;;;;;;12.17;6.23;;;20.50;92.10;;;;;;4138029;28;20261;-76
2022/06/22 07:52:04;;;;;;;5.33;4.83;;;20.80;91.50;;;;;;4137104;28;20201;-77
2022/06/22 07:54:27;;;;;;;8.13;4.63;;;20.60;91.80;;;;;;4138654;28;20225;-77
2022/06/22 07:56:52;;;;;;;6.43;4.30;;;20.60;93.50;;;;;;4136972;28;20210;-77
2022/06/22 07:58:58;;;;;;;11.17;5.63;;;20.70;91.60;;;;;;4137250;28;20254;-76
2022/06/22 08:01:05;;;;;;;9.07;4.10;;;20.70;90.90;;;;;;4136698;28;20293;-76
2022/06/22 08:03:27;;;;;;;10.63;4.37;;;20.60;91.70;;;;;;4138290;28;20171;-76
2022/06/22 08:05:33;;;;;;;9.80;4.50;;;20.70;90.80;;;;;;4136985;28;20182;-77
2022/06/22 08:07:41;;;;;;;11.87;3.33;;;20.80;89.30;;;;;;4137699;28;20226;-77
2022/06/22 08:09:55;;;;;;;10.53;4.73;;;20.90;89.00;;;;;;4138630;28;20209;-77
2022/06/22 08:12:09;;;;;;;7.80;3.67;;;21.20;83.80;;;;;;4137088;28;20568;-77
2022/06/22 08:14:25;;;;;;;10.30;4.77;;;21.00;88.60;;;;;;4138165;28;20189;-77
2022/06/22 08:16:36;;;;;;;10.60;7.57;;;21.00;90.40;;;;;;4138468;28;20657;-77
2022/06/22 08:18:37;;;;;;;11.23;5.33;;;21.00;86.60;;;;;;4136209;28;20226;-77
2022/06/22 08:20:42;;;;;;;10.20;4.40;;;21.20;86.50;;;;;;4137510;28;20210;-77
2022/06/22 08:22:45;;;;;;;11.13;5.33;;;21.20;90.10;;;;;;4137144;28;20536;-77
2022/06/22 08:24:48;;;;;;;7.77;3.87;;;21.20;89.00;;;;;;4137428;28;20208;-77
2022/06/22 08:26:51;;;;;;;9.67;5.20;;;21.60;86.40;;;;;;4136602;28;20181;-76
2022/06/22 08:28:52;;;;;;;10.03;3.30;;;21.80;83.00;;;;;;4134548;28;20202;-78
2022/06/22 08:30:55;;;;;;;9.90;4.13;;;22.10;77.20;;;;;;4133322;28;20217;-77
2022/06/22 08:33:04;;;;;;;14.20;5.37;;;22.10;83.90;;;;;;4133869;28;20186;-77
2022/06/22 08:35:09;;;;;;;12.37;4.73;;;22.10;84.00;;;;;;4133262;28;20565;-76
2022/06/22 08:37:19;;;;;;;9.70;4.47;;;22.10;77.50;;;;;;4133272;28;20183;-77
2022/06/22 08:39:27;;;;;;;11.37;4.47;;;22.30;72.00;;;;;;4133814;28;20198;-77
2022/06/22 08:41:44;;;;;;;10.93;5.83;;;22.30;76.50;;;;;;4134165;28;20166;-77
2022/06/22 08:43:53;;;;;;;8.50;4.33;;;22.20;71.60;;;;;;4133697;28;20240;-77
2022/06/22 08:46:25;;;;;;;11.37;5.43;;;22.10;72.50;;;;;;4134102;28;20234;-77
2022/06/22 08:48:37;;;;;;;14.00;4.93;;;22.00;71.50;;;;;;4132961;28;20706;-77
2022/06/22 08:50:55;;;;;;;15.57;5.93;;;21.80;75.40;;;;;;4133655;28;20194;-77
2022/06/22 08:53:26;;;;;;;8.90;4.37;;;21.60;81.10;;;;;;4133540;28;20182;-76
2022/06/22 08:55:55;;;;;;;12.30;4.17;;;21.30;78.00;;;;;;4134227;28;20616;-77
2022/06/22 08:58:37;;;;;;;14.63;4.97;;;20.90;77.80;;;;;;4133376;28;20571;-77
2022/06/22 09:00:59;;;;;;;11.57;6.23;;;20.90;80.40;;;;;;4131991;28;20583;-77
2022/06/22 09:03:12;;;;;;;12.27;4.00;;;21.00;80.00;;;;;;4134027;28;20166;-77
2022/06/22 09:05:50;;;;;;;13.37;4.53;;;20.80;81.00;;;;;;4134046;28;20527;-77
2022/06/22 09:08:37;;;;;;;12.90;5.03;;;20.80;90.30;;;;;;4134955;28;20242;-76
2022/06/22 09:11:02;;;;;;;13.10;6.47;;;20.50;92.30;;;;;;4138970;28;20201;-76
2022/06/22 09:13:03;;;;;;;9.50;4.60;;;20.40;90.80;;;;;;4135207;28;20207;-77
2022/06/22 09:15:10;;;;;;;13.70;5.83;;;20.30;92.20;;;;;;4137352;28;20232;-77
2022/06/22 09:17:19;;;;;;;14.67;6.00;;;20.20;93.10;;;;;;4137870;28;20186;-77
2022/06/22 09:19:42;;;;;;;14.00;6.03;;;20.30;93.80;;;;;;4135602;28;20206;-77
2022/06/22 09:22:00;;;;;;;14.90;6.57;;;20.40;93.10;;;;;;4136278;28;20178;-77
2022/06/22 09:24:30;;;;;;;11.43;6.23;;;20.60;92.50;;;;;;4135869;28;20237;-76
2022/06/22 09:26:43;;;;;;;11.60;7.13;;;20.80;91.40;;;;;;4135746;28;20190;-77
2022/06/22 09:28:59;;;;;;;11.30;5.77;;;20.80;90.50;;;;;;4136605;28;20261;-76
2022/06/22 09:31:14;;;;;;;20.17;9.03;;;20.80;92.60;;;;;;4137646;28;20186;-76
2022/06/22 09:33:33;;;;;;;15.70;8.27;;;20.70;92.10;;;;;;4137458;28;20182;-76
2022/06/22 09:36:21;;;;;;;16.20;7.40;;;20.80;92.00;;;;;;4137033;28;20253;-76
2022/06/22 09:38:27;;;;;;;15.60;8.43;;;20.80;88.50;;;;;;4136219;28;20214;-77
2022/06/22 09:40:41;;;;;;;15.47;8.33;;;20.80;89.10;;;;;;4140626;28;20183;-76
2022/06/22 09:43:03;;;;;;;16.73;9.40;;;20.80;90.30;;;;;;4140775;28;20178;-76
2022/06/22 09:45:47;;;;;;;15.30;8.57;;;20.80;90.10;;;;;;4140383;28;20217;-76
2022/06/22 09:47:51;;;;;;;13.87;7.13;;;20.50;91.10;;;;;;4139490;28;20190;-77
2022/06/22 09:50:26;;;;;;;20.80;13.33;;;20.30;93.40;;;;;;4138690;28;20182;-76
2022/06/22 09:52:46;;;;;;;22.43;9.73;;;20.20;94.00;;;;;;4140733;28;20252;-76
2022/06/22 09:57:46;;;;;;;14.37;8.80;;;20.10;94.50;;;;;;4139039;28;20205;-76
2022/06/22 10:00:11;;;;;;;15.20;8.93;;;20.10;94.80;;;;;;4139796;28;20210;-76
2022/06/22 10:02:14;;;;;;;14.87;11.87;;;19.90;94.50;;;;;;4138631;28;20179;-75
2022/06/22 10:04:15;;;;;;;18.17;11.90;;;19.60;95.10;;;;;;4139760;28;20186;-76
2022/06/22 10:06:30;;;;;;;16.30;10.27;;;19.60;95.60;;;;;;4142398;28;20183;-76
2022/06/22 10:09:06;;;;;;;11.33;8.77;;;19.60;96.70;;;;;;4142065;28;20840;-76
2022/06/22 10:11:23;;;;;;;13.40;6.77;;;19.60;97.80;;;;;;4143060;28;20166;-76
2022/06/22 10:13:44;;;;;;;16.20;9.43;;;19.70;98.10;;;;;;4142327;28;20186;-76
2022/06/22 10:16:19;;;;;;;15.00;7.83;;;19.80;96.50;;;;;;4139156;28;20175;-76
2022/06/22 10:18:48;;;;;;;16.60;9.10;;;19.60;97.20;;;;;;4138587;28;20202;-77
2022/06/22 10:21:08;;;;;;;13.83;6.53;;;19.70;97.00;;;;;;4112167;28;20204;-77
2022/06/22 10:23:46;;;;;;;11.67;6.50;;;19.90;96.20;;;;;;4137922;28;20193;-76
2022/06/22 10:26:10;;;;;;;12.03;5.90;;;20.00;95.70;;;;;;4138678;28;20182;-76
2022/06/22 10:28:48;;;;;;;10.27;6.17;;;20.50;96.00;;;;;;4136334;28;20665;-76
2022/06/22 10:31:06;;;;;;;12.70;6.50;;;20.60;95.30;;;;;;4137287;28;20182;-76
2022/06/22 10:33:15;;;;;;;16.63;7.07;;;20.60;95.60;;;;;;4136489;28;20521;-76
2022/06/22 10:35:31;;;;;;;15.03;6.67;;;20.80;95.00;;;;;;4138979;28;20164;-76
2022/06/22 10:37:49;;;;;;;13.23;7.33;;;21.10;94.80;;;;;;4136756;28;20217;-76
2022/06/22 10:40:03;;;;;;;17.73;8.20;;;21.30;95.00;;;;;;4137464;28;20571;-76
2022/06/22 10:45:10;;;;;;;17.77;8.97;;;21.50;89.70;;;;;;4138857;28;20187;-76
2022/06/22 10:47:23;;;;;;;15.53;6.07;;;21.40;91.40;;;;;;4137714;28;20354;-76
2022/06/22 10:49:49;;;;;;;13.17;5.57;;;21.50;85.20;;;;;;4139313;28;20223;-76
2022/06/22 10:52:24;;;;;;;26.20;23.83;;;21.60;81.80;;;;;;4139094;28;20202;-74
2022/06/22 10:54:33;;;;;;;10.63;6.97;;;21.50;86.20;;;;;;4137506;28;20178;-76
2022/06/22 10:56:53;;;;;;;10.43;6.93;;;21.20;88.70;;;;;;4137409;28;20680;-76
2022/06/22 10:59:15;;;;;;;15.83;5.53;;;21.60;88.60;;;;;;4135267;28;20245;-77
2022/06/22 11:01:55;;;;;;;15.13;6.60;;;21.60;82.70;;;;;;4135169;28;20222;-77
2022/06/22 11:04:18;;;;;;;16.23;12.93;;;22.20;81.50;;;;;;4134713;28;20217;-77
2022/06/22 11:06:42;;;;;;;12.57;4.87;;;22.30;77.20;;;;;;4134778;28;20751;-77
2022/06/22 11:08:58;;;;;;;24.77;22.63;;;22.30;78.40;;;;;;4132862;28;20249;-77
2022/06/22 11:11:35;;;;;;;10.13;8.73;;;22.20;73.20;;;;;;4133175;28;20186;-77
2022/06/22 11:14:12;;;;;;;14.07;5.30;;;22.00;74.70;;;;;;4133234;28;20182;-77
2022/06/22 11:16:41;;;;;;;15.10;5.40;;;21.80;76.50;;;;;;4134140;28;20265;-78
2022/06/22 11:19:01;;;;;;;8.40;3.60;;;22.00;80.40;;;;;;4134537;28;20676;-78
2022/06/22 11:21:31;;;;;;;10.03;5.97;;;22.50;74.30;;;;;;4150146;28;20169;-77
2022/06/22 11:24:02;;;;;;;10.63;6.30;;;22.90;74.60;;;;;;4151196;28;20166;-78
2022/06/22 11:31:53;;;;;;;10.23;3.83;;;23.20;70.20;;;;;;4151949;28;20208;-78
2022/06/22 11:34:09;;;;;;;10.23;4.07;;;22.90;69.00;;;;;;4151741;28;20224;-78
2022/06/22 11:36:29;;;;;;;13.70;12.47;;;23.30;72.30;;;;;;4150097;28;20225;-77
2022/06/22 11:39:00;;;;;;;10.90;4.90;;;23.50;67.30;;;;;;4150386;28;20767;-78
2022/06/22 11:41:18;;;;;;;9.50;8.30;;;24.40;64.90;;;;;;4134593;28;20257;-78
2022/06/22 11:43:53;;;;;;;7.67;5.47;;;24.20;60.80;;;;;;4135126;28;20206;-79
2022/06/22 11:46:23;;;;;;;5.67;3.43;;;24.00;59.90;;;;;;4134722;28;20163;-78
2022/06/22 11:48:46;;;;;;;5.70;3.47;;;23.70;62.10;;;;;;4133798;28;20721;-78